createdAt,value
2023-09-09T00:01:00.000Z,9.3
2023-09-09T00:02:00.000Z,9.2
2023-09-09T00:03:00.000Z,9.2
2023-09-09T00:04:00.000Z,9.2
2023-09-09T00:05:00.000Z,9.2
2023-09-09T00:06:00.000Z,9.4
2023-09-09T00:07:00.000Z,9.4
2023-09-09T00:08:00.000Z,9.2
2023-09-09T00:09:00.000Z,9.2
2023-09-09T00:10:00.000Z,9.3
2023-09-09T00:11:00.000Z,9.2
2023-09-09T00:12:00.000Z,9.1
2023-09-09T00:13:00.000Z,8.9
2023-09-09T00:14:00.000Z,8.8
2023-09-09T00:15:00.000Z,9.0
2023-09-09T00:16:00.000Z,9.2
2023-09-09T00:17:00.000Z,9.4
2023-09-09T00:18:00.000Z,9.6
2023-09-09T00:19:00.000Z,9.5
2023-09-09T00:20:00.000Z,9.5
2023-09-09T00:21:00.000Z,9.4
2023-09-09T00:22:00.000Z,9.5
2023-09-09T00:23:00.000Z,9.6
2023-09-09T00:24:00.000Z,9.5
2023-09-09T00:25:00.000Z,9.4
2023-09-09T00:26:00.000Z,9.2
2023-09-09T00:27:00.000Z,9.0
2023-09-09T00:28:00.000Z,8.9
2023-09-09T00:29:00.000Z,8.8
2023-09-09T00:30:00.000Z,8.9
2023-09-09T00:31:00.000Z,8.9
2023-09-09T00:32:00.000Z,8.7
2023-09-09T00:33:00.000Z,8.6
2023-09-09T00:34:00.000Z,8.6
2023-09-09T00:35:00.000Z,8.8
2023-09-09T00:36:00.000Z,8.9
2023-09-09T00:37:00.000Z,9.0
2023-09-09T00:38:00.000Z,8.8
2023-09-09T00:39:00.000Z,8.7
2023-09-09T00:40:00.000Z,8.8
2023-09-09T00:41:00.000Z,9.1
2023-09-09T00:42:00.000Z,9.1
2023-09-09T00:43:00.000Z,9.1
2023-09-09T00:44:00.000Z,8.9
2023-09-09T00:45:00.000Z,8.6
2023-09-09T00:46:00.000Z,8.3
2023-09-09T00:47:00.000Z,8.3
2023-09-09T00:48:00.000Z,8.3
2023-09-09T00:49:00.000Z,8.4
2023-09-09T00:50:00.000Z,8.3
2023-09-09T00:51:00.000Z,8.3
2023-09-09T00:52:00.000Z,8.0
2023-09-09T00:53:00.000Z,7.8
2023-09-09T00:54:00.000Z,7.8
2023-09-09T00:55:00.000Z,8.1
2023-09-09T00:56:00.000Z,8.5
2023-09-09T00:57:00.000Z,8.8
2023-09-09T00:58:00.000Z,9.0
2023-09-09T00:59:00.000Z,9.0
2023-09-09T01:01:00.000Z,9.2
2023-09-09T01:02:00.000Z,9.1
2023-09-09T01:03:00.000Z,8.8
2023-09-09T01:04:00.000Z,8.6
2023-09-09T01:05:00.000Z,8.6
2023-09-09T01:06:00.000Z,8.7
2023-09-09T01:07:00.000Z,8.8
2023-09-09T01:08:00.000Z,9.0
2023-09-09T01:09:00.000Z,8.9
2023-09-09T01:10:00.000Z,8.8
2023-09-09T01:11:00.000Z,8.4
2023-09-09T01:12:00.000Z,8.4
2023-09-09T01:13:00.000Z,8.4
2023-09-09T01:14:00.000Z,8.7
2023-09-09T01:15:00.000Z,8.7
2023-09-09T01:16:00.000Z,8.7
2023-09-09T01:17:00.000Z,8.7
2023-09-09T01:18:00.000Z,8.6
2023-09-09T01:19:00.000Z,8.5
2023-09-09T01:20:00.000Z,8.4
2023-09-09T01:21:00.000Z,8.4
2023-09-09T01:22:00.000Z,8.3
2023-09-09T01:23:00.000Z,8.2
2023-09-09T01:24:00.000Z,8.0
2023-09-09T01:25:00.000Z,8.0
2023-09-09T01:26:00.000Z,8.1
2023-09-09T01:27:00.000Z,8.4
2023-09-09T01:28:00.000Z,8.4
2023-09-09T01:29:00.000Z,8.4
2023-09-09T01:30:00.000Z,8.4
2023-09-09T01:31:00.000Z,8.3
2023-09-09T01:32:00.000Z,8.2
2023-09-09T01:33:00.000Z,8.2
2023-09-09T01:34:00.000Z,8.2
2023-09-09T01:35:00.000Z,8.2
2023-09-09T01:36:00.000Z,8.0
2023-09-09T01:37:00.000Z,7.9
2023-09-09T01:38:00.000Z,8.0
2023-09-09T01:39:00.000Z,8.1
2023-09-09T01:40:00.000Z,8.1
2023-09-09T01:41:00.000Z,8.0
2023-09-09T01:42:00.000Z,7.8
2023-09-09T01:43:00.000Z,7.6
2023-09-09T01:44:00.000Z,7.6
2023-09-09T01:45:00.000Z,7.6
2023-09-09T01:46:00.000Z,7.6
2023-09-09T01:47:00.000Z,7.6
2023-09-09T01:48:00.000Z,7.6
2023-09-09T01:49:00.000Z,7.5
2023-09-09T01:50:00.000Z,7.4
2023-09-09T01:51:00.000Z,7.4
2023-09-09T01:52:00.000Z,7.5
2023-09-09T01:53:00.000Z,7.6
2023-09-09T01:54:00.000Z,7.5
2023-09-09T01:55:00.000Z,7.3
2023-09-09T01:56:00.000Z,7.5
2023-09-09T01:57:00.000Z,7.7
2023-09-09T01:58:00.000Z,7.8
2023-09-09T01:59:00.000Z,7.9
2023-09-09T02:01:00.000Z,7.9
2023-09-09T02:02:00.000Z,7.8
2023-09-09T02:03:00.000Z,7.8
2023-09-09T02:04:00.000Z,7.7
2023-09-09T02:05:00.000Z,7.9
2023-09-09T02:06:00.000Z,8.2
2023-09-09T02:07:00.000Z,8.4
2023-09-09T02:08:00.000Z,8.5
2023-09-09T02:09:00.000Z,8.3
2023-09-09T02:10:00.000Z,8.1
2023-09-09T02:11:00.000Z,7.8
2023-09-09T02:12:00.000Z,7.6
2023-09-09T02:13:00.000Z,7.6
2023-09-09T02:14:00.000Z,7.5
2023-09-09T02:15:00.000Z,7.7
2023-09-09T02:16:00.000Z,7.8
2023-09-09T02:17:00.000Z,7.8
2023-09-09T02:18:00.000Z,7.6
2023-09-09T02:19:00.000Z,7.4
2023-09-09T02:20:00.000Z,7.4
2023-09-09T02:21:00.000Z,7.3
2023-09-09T02:22:00.000Z,7.3
2023-09-09T02:23:00.000Z,7.1
2023-09-09T02:24:00.000Z,6.8
2023-09-09T02:25:00.000Z,6.6
2023-09-09T02:26:00.000Z,6.5
2023-09-09T02:27:00.000Z,6.5
2023-09-09T02:28:00.000Z,6.6
2023-09-09T02:29:00.000Z,6.6
2023-09-09T02:30:00.000Z,6.5
2023-09-09T02:31:00.000Z,6.3
2023-09-09T02:32:00.000Z,6.2
2023-09-09T02:33:00.000Z,6.4
2023-09-09T02:34:00.000Z,6.5
2023-09-09T02:35:00.000Z,6.4
2023-09-09T02:36:00.000Z,6.5
2023-09-09T02:37:00.000Z,6.6
2023-09-09T02:38:00.000Z,6.5
2023-09-09T02:39:00.000Z,6.4
2023-09-09T02:40:00.000Z,6.5
2023-09-09T02:41:00.000Z,6.7
2023-09-09T02:42:00.000Z,7.0
2023-09-09T02:43:00.000Z,6.8
2023-09-09T02:44:00.000Z,6.8
2023-09-09T02:45:00.000Z,6.5
2023-09-09T02:46:00.000Z,6.6
2023-09-09T09:55:00.000Z,4.3
2023-09-09T09:56:00.000Z,4.3
2023-09-09T09:57:00.000Z,4.3
2023-09-09T09:58:00.000Z,4.4
2023-09-09T09:59:00.000Z,4.4
2023-09-09T10:01:00.000Z,4.3
2023-09-09T10:02:00.000Z,4.4
2023-09-09T10:03:00.000Z,4.4
2023-09-09T10:04:00.000Z,4.4
2023-09-09T10:05:00.000Z,4.4
2023-09-09T10:06:00.000Z,4.5
2023-09-09T10:07:00.000Z,4.4
2023-09-09T10:08:00.000Z,4.5
2023-09-09T10:09:00.000Z,4.5
2023-09-09T10:10:00.000Z,4.5
2023-09-09T10:11:00.000Z,4.5
2023-09-09T10:12:00.000Z,4.5
2023-09-09T10:13:00.000Z,4.5
2023-09-09T10:14:00.000Z,4.6
2023-09-09T10:15:00.000Z,4.7
2023-09-09T10:16:00.000Z,4.6
2023-09-09T10:17:00.000Z,4.5
2023-09-09T10:18:00.000Z,4.4
2023-09-09T10:19:00.000Z,4.3
2023-09-09T10:20:00.000Z,4.2
2023-09-09T10:21:00.000Z,4.2
2023-09-09T10:22:00.000Z,4.3
2023-09-09T10:23:00.000Z,4.3
2023-09-09T10:24:00.000Z,4.3
2023-09-09T10:25:00.000Z,4.3
2023-09-09T10:26:00.000Z,4.4
2023-09-09T10:27:00.000Z,4.4
2023-09-09T10:28:00.000Z,4.4
2023-09-09T10:29:00.000Z,4.4
2023-09-09T10:30:00.000Z,4.4
2023-09-09T10:31:00.000Z,4.4
2023-09-09T10:32:00.000Z,4.4
2023-09-09T10:33:00.000Z,4.4
2023-09-09T10:34:00.000Z,4.5
2023-09-09T10:35:00.000Z,4.5
2023-09-09T10:36:00.000Z,4.5
2023-09-09T10:37:00.000Z,4.4
2023-09-09T10:38:00.000Z,4.4
2023-09-09T10:39:00.000Z,4.4
2023-09-09T10:40:00.000Z,4.4
2023-09-09T10:41:00.000Z,4.4
2023-09-09T10:42:00.000Z,4.5
2023-09-09T10:43:00.000Z,4.5
2023-09-09T10:44:00.000Z,4.5
2023-09-09T10:45:00.000Z,4.4
2023-09-09T10:46:00.000Z,4.5
2023-09-09T10:47:00.000Z,4.4
2023-09-09T10:48:00.000Z,4.4
2023-09-09T10:49:00.000Z,4.4
2023-09-09T10:50:00.000Z,4.4
2023-09-09T10:51:00.000Z,4.4
2023-09-09T10:52:00.000Z,4.5
2023-09-09T10:53:00.000Z,4.4
2023-09-09T10:54:00.000Z,4.4
2023-09-09T10:55:00.000Z,4.4
2023-09-09T10:56:00.000Z,4.5
2023-09-09T10:57:00.000Z,4.5
2023-09-09T10:58:00.000Z,4.6
2023-09-09T10:59:00.000Z,4.5
2023-09-09T11:01:00.000Z,4.6
2023-09-09T11:02:00.000Z,4.5
2023-09-09T11:03:00.000Z,4.5
2023-09-09T11:04:00.000Z,4.4
2023-09-09T11:05:00.000Z,4.4
2023-09-09T11:06:00.000Z,4.5
2023-09-09T11:07:00.000Z,4.5
2023-09-09T11:08:00.000Z,4.5
2023-09-09T11:09:00.000Z,4.5
2023-09-09T11:10:00.000Z,4.6
2023-09-09T11:11:00.000Z,4.5
2023-09-09T11:12:00.000Z,4.6
2023-09-09T11:13:00.000Z,4.6
2023-09-09T11:14:00.000Z,4.6
2023-09-09T11:15:00.000Z,4.5
2023-09-09T11:16:00.000Z,4.5
2023-09-09T11:17:00.000Z,4.5
2023-09-09T11:18:00.000Z,4.6
2023-09-09T11:19:00.000Z,4.6
2023-09-09T11:20:00.000Z,4.6
2023-09-09T11:21:00.000Z,4.7
2023-09-09T11:22:00.000Z,4.8
2023-09-09T11:23:00.000Z,4.7
2023-09-09T11:24:00.000Z,4.6
2023-09-09T11:25:00.000Z,4.6
2023-09-09T11:26:00.000Z,4.6
2023-09-09T11:27:00.000Z,4.6
2023-09-09T11:28:00.000Z,4.5
2023-09-09T11:29:00.000Z,4.6
2023-09-09T11:30:00.000Z,4.7
2023-09-09T11:31:00.000Z,4.7
2023-09-09T11:32:00.000Z,4.7
2023-09-09T11:33:00.000Z,4.7
2023-09-09T11:34:00.000Z,4.7
2023-09-09T11:35:00.000Z,4.7
2023-09-09T11:36:00.000Z,4.7
2023-09-09T11:37:00.000Z,4.7
2023-09-09T11:38:00.000Z,4.6
2023-09-09T11:39:00.000Z,4.7
2023-09-09T11:40:00.000Z,4.7
2023-09-09T11:41:00.000Z,4.6
2023-09-09T11:42:00.000Z,4.7
2023-09-09T11:43:00.000Z,4.7
2023-09-09T11:44:00.000Z,4.7
2023-09-09T11:45:00.000Z,4.7
2023-09-09T11:46:00.000Z,4.7
2023-09-09T11:47:00.000Z,4.7
2023-09-09T11:48:00.000Z,4.7
2023-09-09T11:49:00.000Z,4.7
2023-09-09T11:50:00.000Z,4.7
2023-09-09T11:51:00.000Z,4.7
2023-09-09T11:52:00.000Z,4.8
2023-09-09T11:53:00.000Z,4.8
2023-09-09T11:54:00.000Z,4.8
2023-09-09T11:55:00.000Z,4.8
2023-09-09T11:56:00.000Z,4.8
2023-09-09T11:57:00.000Z,4.8
2023-09-09T11:58:00.000Z,4.8
2023-09-09T11:59:00.000Z,4.8
2023-09-09T12:01:00.000Z,4.7
2023-09-09T12:02:00.000Z,4.8
2023-09-09T12:03:00.000Z,4.7
2023-09-09T12:04:00.000Z,4.8
2023-09-09T12:05:00.000Z,4.9
2023-09-09T12:06:00.000Z,4.9
2023-09-09T12:07:00.000Z,4.9
2023-09-09T12:08:00.000Z,4.8
2023-09-09T12:09:00.000Z,4.7
2023-09-09T12:10:00.000Z,4.7
2023-09-09T12:11:00.000Z,4.7
2023-09-09T12:12:00.000Z,4.8
2023-09-09T12:13:00.000Z,4.9
2023-09-09T12:14:00.000Z,4.9
2023-09-09T12:15:00.000Z,4.9
2023-09-09T12:16:00.000Z,4.9
2023-09-09T12:17:00.000Z,4.9
2023-09-09T12:18:00.000Z,4.9
2023-09-09T12:19:00.000Z,4.9
2023-09-09T12:20:00.000Z,4.9
2023-09-09T12:21:00.000Z,4.8
2023-09-09T12:22:00.000Z,4.8
2023-09-09T12:23:00.000Z,4.7
2023-09-09T12:24:00.000Z,4.8
2023-09-09T12:25:00.000Z,4.7
2023-09-09T12:26:00.000Z,4.7
2023-09-09T12:27:00.000Z,4.8
2023-09-09T12:28:00.000Z,4.8
2023-09-09T12:29:00.000Z,4.8
2023-09-09T12:30:00.000Z,4.8
2023-09-09T12:31:00.000Z,4.7
2023-09-09T12:32:00.000Z,4.8
2023-09-09T12:33:00.000Z,4.7
2023-09-09T12:34:00.000Z,4.7
2023-09-09T12:35:00.000Z,4.6
2023-09-09T12:36:00.000Z,4.6
2023-09-09T12:37:00.000Z,4.6
2023-09-09T12:38:00.000Z,4.6
2023-09-09T12:39:00.000Z,4.6
2023-09-09T12:40:00.000Z,4.6
2023-09-09T12:41:00.000Z,4.6
2023-09-09T12:42:00.000Z,4.6
2023-09-09T12:43:00.000Z,4.7
2023-09-09T12:44:00.000Z,4.7
2023-09-09T12:45:00.000Z,4.7
2023-09-09T12:46:00.000Z,4.7
2023-09-09T12:47:00.000Z,4.7
2023-09-09T12:48:00.000Z,4.8
2023-09-09T12:49:00.000Z,4.9
2023-09-09T12:50:00.000Z,5.0
2023-09-09T12:51:00.000Z,5.0
2023-09-09T12:52:00.000Z,4.8
2023-09-09T12:53:00.000Z,4.8
2023-09-09T12:54:00.000Z,4.7
2023-09-09T12:55:00.000Z,4.8
2023-09-09T12:56:00.000Z,4.7
2023-09-09T12:57:00.000Z,4.8
2023-09-09T12:58:00.000Z,4.8
2023-09-09T12:59:00.000Z,4.8
2023-09-09T13:01:00.000Z,4.8
2023-09-09T13:02:00.000Z,4.9
2023-09-09T13:03:00.000Z,4.8
2023-09-09T13:04:00.000Z,4.9
2023-09-09T13:05:00.000Z,5.0
2023-09-09T13:06:00.000Z,5.0
2023-09-09T13:07:00.000Z,5.1
2023-09-09T13:08:00.000Z,5.2
2023-09-09T13:09:00.000Z,5.4
2023-09-09T13:10:00.000Z,5.3
2023-09-09T13:11:00.000Z,5.2
2023-09-09T13:12:00.000Z,4.9
2023-09-09T13:13:00.000Z,4.9
2023-09-09T13:14:00.000Z,4.9
2023-09-09T13:15:00.000Z,4.9
2023-09-09T13:16:00.000Z,4.9
2023-09-09T13:17:00.000Z,4.9
2023-09-09T13:18:00.000Z,4.9
2023-09-09T13:19:00.000Z,4.9
2023-09-09T13:20:00.000Z,4.9
2023-09-09T13:21:00.000Z,5.0
2023-09-09T13:22:00.000Z,4.9
2023-09-09T13:23:00.000Z,4.9
2023-09-09T13:24:00.000Z,4.9
2023-09-09T13:25:00.000Z,4.9
2023-09-09T13:26:00.000Z,4.9
2023-09-09T13:27:00.000Z,4.8
2023-09-09T13:28:00.000Z,4.8
2023-09-09T13:29:00.000Z,4.8
2023-09-09T13:30:00.000Z,4.8
2023-09-09T13:31:00.000Z,4.7
2023-09-09T13:32:00.000Z,4.7
2023-09-09T13:33:00.000Z,4.7
2023-09-09T13:34:00.000Z,4.8
2023-09-09T13:35:00.000Z,5.0
2023-09-09T13:36:00.000Z,5.0
2023-09-09T13:37:00.000Z,4.9
2023-09-09T13:38:00.000Z,4.9
2023-09-09T13:39:00.000Z,4.9
2023-09-09T13:40:00.000Z,4.9
2023-09-09T13:41:00.000Z,4.8
2023-09-09T13:42:00.000Z,4.9
2023-09-09T13:43:00.000Z,4.9
2023-09-09T13:44:00.000Z,4.9
2023-09-09T13:45:00.000Z,4.8
2023-09-09T13:46:00.000Z,4.8
2023-09-09T13:47:00.000Z,4.8
2023-09-09T13:48:00.000Z,4.8
2023-09-09T13:49:00.000Z,4.9
2023-09-09T13:50:00.000Z,4.9
2023-09-09T13:51:00.000Z,4.9
2023-09-09T13:52:00.000Z,4.8
2023-09-09T13:53:00.000Z,4.8
2023-09-09T13:54:00.000Z,4.7
2023-09-09T13:55:00.000Z,4.7
2023-09-09T13:56:00.000Z,4.7
2023-09-09T13:57:00.000Z,4.8
2023-09-09T13:58:00.000Z,4.8
2023-09-09T13:59:00.000Z,4.9
2023-09-09T14:01:00.000Z,4.8
2023-09-09T14:02:00.000Z,4.8
2023-09-09T14:03:00.000Z,4.8
2023-09-09T14:04:00.000Z,4.9
2023-09-09T14:05:00.000Z,4.8
2023-09-09T14:06:00.000Z,4.8
2023-09-09T14:07:00.000Z,4.9
2023-09-09T14:08:00.000Z,4.9
2023-09-09T14:09:00.000Z,5.0
2023-09-09T14:10:00.000Z,4.9
2023-09-09T14:11:00.000Z,5.0
2023-09-09T14:12:00.000Z,4.9
2023-09-09T14:13:00.000Z,5.0
2023-09-09T14:14:00.000Z,4.9
2023-09-09T14:15:00.000Z,4.8
2023-09-09T14:16:00.000Z,4.9
2023-09-09T14:17:00.000Z,4.9
2023-09-09T14:18:00.000Z,4.9
2023-09-09T14:19:00.000Z,4.9
2023-09-09T14:20:00.000Z,4.9
2023-09-09T14:21:00.000Z,4.9
2023-09-09T14:22:00.000Z,4.9
2023-09-09T14:23:00.000Z,4.9
2023-09-09T14:24:00.000Z,4.9
2023-09-09T14:25:00.000Z,4.9
2023-09-09T14:26:00.000Z,4.9
2023-09-09T14:27:00.000Z,4.9
2023-09-09T14:28:00.000Z,4.9
2023-09-09T14:29:00.000Z,4.9
2023-09-09T14:30:00.000Z,4.9
2023-09-09T14:31:00.000Z,4.9
2023-09-09T14:32:00.000Z,4.9
2023-09-09T14:33:00.000Z,5.0
2023-09-09T14:34:00.000Z,5.0
2023-09-09T14:35:00.000Z,5.0
2023-09-09T14:36:00.000Z,5.0
2023-09-09T14:37:00.000Z,4.9
2023-09-09T14:38:00.000Z,4.9
2023-09-09T14:39:00.000Z,4.9
2023-09-09T14:40:00.000Z,5.0
2023-09-09T14:41:00.000Z,5.0
2023-09-09T14:42:00.000Z,5.0
2023-09-09T14:43:00.000Z,5.0
2023-09-09T14:44:00.000Z,5.0
2023-09-09T14:45:00.000Z,5.0
2023-09-09T14:46:00.000Z,4.9
2023-09-09T14:47:00.000Z,4.9
2023-09-09T14:48:00.000Z,5.0
2023-09-09T14:49:00.000Z,5.0
2023-09-09T14:50:00.000Z,5.0
2023-09-09T14:51:00.000Z,5.0
2023-09-09T14:52:00.000Z,5.0
2023-09-09T14:53:00.000Z,5.1
2023-09-09T14:54:00.000Z,5.0
2023-09-09T14:55:00.000Z,5.1
2023-09-09T14:56:00.000Z,5.0
2023-09-09T14:57:00.000Z,5.0
2023-09-09T14:58:00.000Z,5.0
2023-09-09T14:59:00.000Z,5.0
2023-09-09T15:01:00.000Z,5.0
2023-09-09T15:02:00.000Z,5.0
2023-09-09T15:03:00.000Z,5.1
2023-09-09T15:04:00.000Z,5.1
2023-09-09T15:05:00.000Z,5.1
2023-09-09T15:06:00.000Z,5.0
2023-09-09T15:07:00.000Z,5.0
2023-09-09T15:08:00.000Z,4.9
2023-09-09T15:09:00.000Z,4.9
2023-09-09T15:10:00.000Z,4.9
2023-09-09T15:11:00.000Z,5.0
2023-09-09T15:12:00.000Z,5.1
2023-09-09T15:13:00.000Z,5.1
2023-09-09T15:14:00.000Z,5.1
2023-09-09T15:15:00.000Z,5.1
2023-09-09T15:16:00.000Z,5.1
2023-09-09T15:17:00.000Z,5.2
2023-09-09T15:18:00.000Z,5.2
2023-09-09T15:19:00.000Z,5.3
2023-09-09T15:20:00.000Z,5.3
2023-09-09T15:21:00.000Z,5.3
2023-09-09T15:22:00.000Z,5.2
2023-09-09T15:23:00.000Z,5.1
2023-09-09T15:24:00.000Z,5.2
2023-09-09T15:25:00.000Z,5.3
2023-09-09T15:26:00.000Z,5.3
2023-09-09T15:27:00.000Z,5.2
2023-09-09T15:28:00.000Z,5.1
2023-09-09T15:29:00.000Z,5.1
2023-09-09T15:30:00.000Z,5.2
2023-09-09T15:31:00.000Z,5.2
2023-09-09T15:32:00.000Z,5.2
2023-09-09T15:33:00.000Z,5.1
2023-09-09T15:34:00.000Z,5.1
2023-09-09T15:35:00.000Z,5.2
2023-09-09T15:36:00.000Z,5.1
2023-09-09T15:37:00.000Z,5.1
2023-09-09T15:38:00.000Z,5.0
2023-09-09T15:39:00.000Z,5.0
2023-09-09T15:40:00.000Z,5.1
2023-09-09T15:41:00.000Z,5.2
2023-09-09T15:42:00.000Z,5.1
2023-09-09T15:43:00.000Z,5.1
2023-09-09T15:44:00.000Z,5.1
2023-09-09T15:45:00.000Z,5.1
2023-09-09T15:46:00.000Z,5.2
2023-09-09T15:47:00.000Z,5.2
2023-09-09T15:48:00.000Z,5.2
2023-09-09T15:49:00.000Z,5.1
2023-09-09T15:50:00.000Z,5.1
2023-09-09T15:51:00.000Z,5.1
2023-09-09T15:52:00.000Z,5.1
2023-09-09T15:53:00.000Z,5.0
2023-09-09T15:54:00.000Z,5.0
2023-09-09T15:55:00.000Z,5.1
2023-09-09T15:56:00.000Z,5.1
2023-09-09T15:57:00.000Z,5.1
2023-09-09T15:58:00.000Z,5.2
2023-09-09T15:59:00.000Z,5.1
2023-09-09T16:01:00.000Z,5.0
2023-09-09T16:02:00.000Z,4.9
2023-09-09T16:03:00.000Z,5.0
2023-09-09T16:04:00.000Z,4.9
2023-09-09T16:05:00.000Z,5.0
2023-09-09T16:06:00.000Z,5.0
2023-09-09T16:07:00.000Z,5.0
2023-09-09T16:08:00.000Z,5.0
2023-09-09T16:09:00.000Z,5.0
2023-09-09T16:10:00.000Z,5.0
2023-09-09T16:11:00.000Z,5.0
2023-09-09T16:12:00.000Z,4.9
2023-09-09T16:13:00.000Z,5.0
2023-09-09T16:14:00.000Z,5.0
2023-09-09T16:15:00.000Z,5.0
2023-09-09T16:16:00.000Z,5.0
2023-09-09T16:17:00.000Z,5.1
2023-09-09T16:18:00.000Z,5.3
2023-09-09T16:19:00.000Z,5.2
2023-09-09T16:20:00.000Z,5.3
2023-09-09T16:21:00.000Z,5.3
2023-09-09T16:22:00.000Z,5.3
2023-09-09T16:23:00.000Z,5.2
2023-09-09T16:24:00.000Z,5.3
2023-09-09T16:25:00.000Z,5.3
2023-09-09T16:26:00.000Z,5.3
2023-09-09T16:27:00.000Z,5.3
2023-09-09T16:28:00.000Z,5.3
2023-09-09T16:29:00.000Z,5.3
2023-09-09T16:30:00.000Z,5.3
2023-09-09T16:31:00.000Z,5.3
2023-09-09T16:32:00.000Z,5.3
2023-09-09T16:33:00.000Z,5.2
2023-09-09T16:34:00.000Z,5.2
2023-09-09T16:35:00.000Z,5.1
2023-09-09T16:36:00.000Z,5.2
2023-09-09T16:37:00.000Z,5.2
2023-09-09T16:38:00.000Z,5.1
2023-09-09T16:39:00.000Z,5.2
2023-09-09T16:40:00.000Z,5.2
2023-09-09T16:41:00.000Z,5.2
2023-09-09T16:42:00.000Z,5.2
2023-09-09T16:43:00.000Z,5.2
2023-09-09T16:44:00.000Z,5.2
2023-09-09T16:45:00.000Z,5.3
2023-09-09T16:46:00.000Z,5.2
2023-09-09T16:47:00.000Z,5.2
2023-09-09T16:48:00.000Z,5.2
2023-09-09T16:49:00.000Z,5.2
2023-09-09T16:50:00.000Z,5.1
2023-09-09T16:51:00.000Z,5.1
2023-09-09T16:52:00.000Z,5.0
2023-09-09T16:53:00.000Z,5.0
2023-09-09T16:54:00.000Z,5.0
2023-09-09T16:55:00.000Z,5.0
2023-09-09T16:56:00.000Z,5.1
2023-09-09T16:57:00.000Z,5.2
2023-09-09T16:58:00.000Z,5.1
2023-09-09T16:59:00.000Z,5.2
2023-09-09T17:01:00.000Z,5.2
2023-09-09T17:02:00.000Z,5.2
2023-09-09T17:03:00.000Z,5.2
2023-09-09T17:04:00.000Z,5.1
2023-09-09T17:05:00.000Z,5.0
2023-09-09T17:06:00.000Z,4.9
2023-09-09T17:07:00.000Z,4.9
2023-09-09T17:08:00.000Z,4.9
2023-09-09T17:09:00.000Z,4.9
2023-09-09T17:10:00.000Z,4.9
2023-09-09T17:11:00.000Z,5.0
2023-09-09T17:12:00.000Z,5.0
2023-09-09T17:13:00.000Z,5.1
2023-09-09T17:14:00.000Z,5.0
2023-09-09T17:15:00.000Z,5.1
2023-09-09T17:16:00.000Z,5.1
2023-09-09T17:17:00.000Z,5.1
2023-09-09T17:18:00.000Z,5.1
2023-09-09T17:19:00.000Z,5.1
2023-09-09T17:20:00.000Z,5.1
2023-09-09T17:21:00.000Z,5.2
2023-09-09T17:22:00.000Z,5.2
2023-09-09T17:23:00.000Z,5.2
2023-09-09T17:24:00.000Z,5.2
2023-09-09T17:25:00.000Z,5.2
2023-09-09T17:26:00.000Z,5.1
2023-09-09T17:27:00.000Z,5.2
2023-09-09T17:28:00.000Z,5.2
2023-09-09T17:29:00.000Z,5.2
2023-09-09T17:30:00.000Z,5.2
2023-09-09T17:31:00.000Z,5.2
2023-09-09T17:32:00.000Z,5.1
2023-09-09T17:33:00.000Z,5.1
2023-09-09T17:34:00.000Z,5.0
2023-09-09T17:35:00.000Z,5.1
2023-09-09T17:36:00.000Z,5.1
2023-09-09T17:37:00.000Z,5.1
2023-09-09T17:38:00.000Z,5.0
2023-09-09T17:39:00.000Z,5.1
2023-09-09T17:40:00.000Z,5.0
2023-09-09T17:41:00.000Z,5.1
2023-09-09T17:42:00.000Z,5.0
2023-09-09T17:43:00.000Z,5.1
2023-09-09T17:44:00.000Z,5.1
2023-09-09T17:45:00.000Z,5.1
2023-09-09T17:46:00.000Z,5.1
2023-09-09T17:47:00.000Z,5.1
2023-09-09T17:48:00.000Z,5.2
2023-09-09T17:49:00.000Z,5.3
2023-09-09T17:50:00.000Z,5.3
2023-09-09T17:51:00.000Z,5.3
2023-09-09T17:52:00.000Z,5.2
2023-09-09T17:53:00.000Z,5.1
2023-09-09T17:54:00.000Z,5.0
2023-09-09T17:55:00.000Z,5.0
2023-09-09T17:56:00.000Z,5.0
2023-09-09T17:57:00.000Z,4.9
2023-09-09T17:58:00.000Z,4.8
2023-09-09T17:59:00.000Z,4.4
2023-09-09T18:01:00.000Z,4.4
2023-09-09T18:02:00.000Z,4.4
2023-09-09T18:03:00.000Z,4.6
2023-09-09T18:04:00.000Z,4.7
2023-09-09T18:05:00.000Z,4.8
2023-09-09T18:06:00.000Z,4.9
2023-09-09T18:07:00.000Z,4.9
2023-09-09T18:08:00.000Z,4.8
2023-09-09T18:09:00.000Z,4.8
2023-09-09T18:10:00.000Z,4.8
2023-09-09T18:11:00.000Z,4.8
2023-09-09T18:12:00.000Z,4.8
2023-09-09T18:13:00.000Z,4.9
2023-09-09T18:14:00.000Z,4.8
2023-09-09T18:15:00.000Z,4.9
2023-09-09T18:16:00.000Z,5.0
2023-09-09T18:17:00.000Z,5.0
2023-09-09T18:18:00.000Z,5.0
2023-09-09T18:19:00.000Z,5.0
2023-09-09T18:20:00.000Z,4.9
2023-09-09T18:21:00.000Z,5.0
2023-09-09T18:22:00.000Z,5.0
2023-09-09T18:23:00.000Z,5.0
2023-09-09T18:24:00.000Z,4.8
2023-09-09T18:25:00.000Z,4.5
2023-09-09T18:26:00.000Z,4.3
2023-09-09T18:27:00.000Z,4.4
2023-09-09T18:28:00.000Z,4.4
2023-09-09T18:29:00.000Z,4.5
2023-09-09T18:30:00.000Z,4.6
2023-09-09T18:31:00.000Z,4.7
2023-09-09T18:32:00.000Z,4.7
2023-09-09T18:33:00.000Z,4.7
2023-09-09T18:34:00.000Z,4.8
2023-09-09T18:35:00.000Z,4.8
2023-09-09T18:36:00.000Z,4.9
2023-09-09T18:37:00.000Z,5.0
2023-09-09T18:38:00.000Z,5.0
2023-09-09T18:39:00.000Z,5.0
2023-09-09T18:40:00.000Z,4.9
2023-09-09T18:41:00.000Z,4.9
2023-09-09T18:42:00.000Z,4.9
2023-09-09T18:43:00.000Z,4.6
2023-09-09T18:44:00.000Z,4.4
2023-09-09T18:45:00.000Z,4.4
2023-09-09T18:46:00.000Z,4.4
2023-09-09T18:47:00.000Z,4.4
2023-09-09T18:48:00.000Z,4.6
2023-09-09T18:49:00.000Z,4.7
2023-09-09T18:50:00.000Z,4.8
2023-09-09T18:51:00.000Z,4.8
2023-09-09T18:52:00.000Z,4.8
2023-09-09T18:53:00.000Z,4.8
2023-09-09T18:54:00.000Z,4.8
2023-09-09T18:55:00.000Z,4.9
2023-09-09T18:56:00.000Z,4.9
2023-09-09T18:57:00.000Z,4.9
2023-09-09T18:58:00.000Z,4.8
2023-09-09T18:59:00.000Z,4.8
2023-09-09T19:01:00.000Z,4.7
2023-09-09T19:02:00.000Z,4.6
2023-09-09T19:03:00.000Z,4.6
2023-09-09T19:04:00.000Z,4.4
2023-09-09T19:05:00.000Z,4.4
2023-09-09T19:06:00.000Z,4.4
2023-09-09T19:07:00.000Z,4.4
2023-09-09T19:08:00.000Z,4.5
2023-09-09T19:09:00.000Z,4.5
2023-09-09T19:10:00.000Z,4.7
2023-09-09T19:11:00.000Z,4.7
2023-09-09T19:12:00.000Z,4.8
2023-09-09T19:13:00.000Z,4.8
2023-09-09T19:14:00.000Z,4.8
2023-09-09T19:15:00.000Z,4.8
2023-09-09T19:16:00.000Z,4.9
2023-09-09T19:17:00.000Z,4.9
2023-09-09T19:18:00.000Z,4.8
2023-09-09T19:19:00.000Z,4.7
2023-09-09T19:20:00.000Z,4.6
2023-09-09T19:21:00.000Z,4.6
2023-09-09T19:22:00.000Z,4.6
2023-09-09T19:23:00.000Z,4.2
2023-09-09T19:24:00.000Z,4.1
2023-09-09T19:25:00.000Z,4.1
2023-09-09T19:26:00.000Z,4.3
2023-09-09T19:27:00.000Z,4.3
2023-09-09T19:28:00.000Z,4.5
2023-09-09T19:29:00.000Z,4.6
2023-09-09T19:30:00.000Z,4.6
2023-09-09T19:31:00.000Z,4.7
2023-09-09T19:32:00.000Z,4.6
2023-09-09T19:33:00.000Z,4.6
2023-09-09T19:34:00.000Z,4.5
2023-09-09T19:35:00.000Z,4.5
2023-09-09T19:36:00.000Z,4.4
2023-09-09T19:37:00.000Z,4.2
2023-09-09T19:38:00.000Z,4.2
2023-09-09T19:39:00.000Z,4.3
2023-09-09T19:40:00.000Z,4.4
2023-09-09T19:41:00.000Z,4.4
2023-09-09T19:42:00.000Z,4.4
2023-09-09T19:43:00.000Z,4.6
2023-09-09T19:44:00.000Z,4.7
2023-09-09T19:45:00.000Z,4.8
2023-09-09T19:46:00.000Z,4.7
2023-09-09T19:47:00.000Z,4.7
2023-09-09T19:48:00.000Z,4.6
2023-09-09T19:49:00.000Z,4.5
2023-09-09T19:50:00.000Z,4.6
2023-09-09T19:51:00.000Z,4.6
2023-09-09T19:52:00.000Z,4.3
2023-09-09T19:53:00.000Z,4.2
2023-09-09T19:54:00.000Z,4.1
2023-09-09T19:55:00.000Z,4.3
2023-09-09T19:56:00.000Z,4.4
2023-09-09T19:57:00.000Z,4.5
2023-09-09T19:58:00.000Z,4.6
2023-09-09T19:59:00.000Z,4.7
2023-09-09T20:01:00.000Z,4.8
2023-09-09T20:02:00.000Z,4.7
2023-09-09T20:03:00.000Z,4.7
2023-09-09T20:04:00.000Z,4.6
2023-09-09T20:05:00.000Z,4.4
2023-09-09T20:06:00.000Z,4.3
2023-09-09T20:07:00.000Z,4.3
2023-09-09T20:08:00.000Z,4.4
2023-09-09T20:09:00.000Z,4.4
2023-09-09T20:10:00.000Z,4.5
2023-09-09T20:11:00.000Z,4.6
2023-09-09T20:12:00.000Z,4.8
2023-09-09T20:13:00.000Z,4.8
2023-09-09T20:14:00.000Z,4.7
2023-09-09T20:15:00.000Z,4.7
2023-09-09T20:16:00.000Z,4.7
2023-09-09T20:17:00.000Z,4.6
2023-09-09T20:18:00.000Z,4.4
2023-09-09T20:19:00.000Z,4.2
2023-09-09T20:20:00.000Z,4.2
2023-09-09T20:21:00.000Z,4.4
2023-09-09T20:22:00.000Z,4.5
2023-09-09T20:23:00.000Z,4.6
2023-09-09T20:24:00.000Z,4.7
2023-09-09T20:25:00.000Z,4.7
2023-09-09T20:26:00.000Z,4.7
2023-09-09T20:27:00.000Z,4.7
2023-09-09T20:28:00.000Z,4.7
2023-09-09T20:29:00.000Z,4.7
2023-09-09T20:30:00.000Z,4.7
2023-09-09T20:31:00.000Z,4.6
2023-09-09T20:32:00.000Z,4.5
2023-09-09T20:33:00.000Z,4.3
2023-09-09T20:34:00.000Z,4.2
2023-09-09T20:35:00.000Z,4.2
2023-09-09T20:36:00.000Z,4.3
2023-09-09T20:37:00.000Z,4.5
2023-09-09T20:38:00.000Z,4.6
2023-09-09T20:39:00.000Z,4.6
2023-09-09T20:40:00.000Z,4.7
2023-09-09T20:41:00.000Z,4.7
2023-09-09T20:42:00.000Z,4.7
2023-09-09T20:43:00.000Z,4.6
2023-09-09T20:44:00.000Z,4.4
2023-09-09T20:45:00.000Z,4.1
2023-09-09T20:46:00.000Z,4.1
2023-09-09T20:47:00.000Z,4.2
2023-09-09T20:48:00.000Z,4.3
2023-09-09T20:49:00.000Z,4.5
2023-09-09T20:50:00.000Z,4.7
2023-09-09T20:51:00.000Z,4.8
2023-09-09T20:52:00.000Z,4.7
2023-09-09T20:53:00.000Z,4.6
2023-09-09T20:54:00.000Z,4.6
2023-09-09T20:55:00.000Z,4.5
2023-09-09T20:56:00.000Z,4.5
2023-09-09T20:57:00.000Z,4.2
2023-09-09T20:58:00.000Z,4.2
2023-09-09T20:59:00.000Z,4.2
2023-09-09T21:01:00.000Z,4.5
2023-09-09T21:02:00.000Z,4.5
2023-09-09T21:03:00.000Z,4.6
2023-09-09T21:04:00.000Z,4.6
2023-09-09T21:05:00.000Z,4.6
2023-09-09T21:06:00.000Z,4.6
2023-09-09T21:07:00.000Z,4.6
2023-09-09T21:08:00.000Z,4.4
2023-09-09T21:09:00.000Z,4.2